Terminal Aerodrome Forecast
Issued by NWS Spokane, WA

Home | Current Version | Previous Version | Text Only | Print | Product List | Glossary On
Versions: 1 2 3 4 5 6 7 8 9 10 11 12 13 14 15 16 17 18 19 20 21 22 23 24 25 26 27 28 29 30 31 32 33 34 35 36 37 38 39 40 41 42 43 44 45 46 47 48 49 50
000
FTUS46 KOTX 132345 CCA
TAFEAT
TAF COR
KEAT 132345Z 1400/1424 09006KT P6SM VCSH OVC060
     FM140200 VRB04KT P6SM SCT050 SCT100
     FM141200 VRB03KT 6SM BR FEW002 SCT120
     FM141500 VRB03KT 2SM BR VCFG SCT002
     FM141800 VRB03KT P6SM SCT120 BKN200=

USA.gov is the U.S. government's official web portal to all federal, state and local government web resources and services.